Tampa, Florida
Traffic Map
Current Weather Conditions
Tampa, Florida
Broken Clouds
Broken Clouds
83°
Feels Like: 89°
Wind Chill: 83° Ceiling: 25000
Heat Index: 89° Visibility: 10mi
Dew Point: 74° Wind: 5mph
Humidity: 74% Direction: 270° (W)
Pressure: 30.1in Gusts: 0mph
Raw Report DataKTPA 300953Z 27004KT 10SM FEW025 BKN250 28/23 A3010 RMK AO2 SLP191 T02830233
Traffic Incident Summary
Active as of:
Severity:
Category:
InformationThere was an issue retrieving the traffic information for this location. Please try a different location or try again shortly.
Advertisements
Track Severe Weather on mobile